Time;durP1;ratioP1;P1;durP2;ratioP2;P2;SDS_P1;SDS_P2;PMS_P1;PMS_P2;Temp;Humidity;BMP_temperature;BMP_pressure;BME280_temperature;BME280_humidity;BME280_pressure;Samples;Min_cycle;Max_cycle;Signal;HPM_P1;HPM_P2
2023/10/03 00:00:58;;;;;;;38.47;16.67;;;;;;;;;;5015446;28;20077;-55
2023/10/03 00:03:24;;;;;;;40.25;17.90;;;;;;;;;;5012693;28;20033;-54
2023/10/03 00:05:51;;;;;;;20.88;8.80;;;;;;;;;;5024573;28;20040;-55
2023/10/03 00:08:18;;;;;;;39.42;18.70;;;;;;;;;;5021479;28;20045;-54
2023/10/03 00:10:45;;;;;;;41.17;17.33;;;;;;;;;;5025485;28;20511;-55
2023/10/03 00:13:11;;;;;;;37.15;17.65;;;;;;;;;;5010864;28;20500;-54
2023/10/03 00:15:43;;;;;;;38.70;18.00;;;;;;;;;;5008281;28;20033;-55
2023/10/03 00:18:10;;;;;;;39.17;17.00;;;;;;;;;;5006880;28;20253;-54
2023/10/03 00:20:36;;;;;;;38.22;17.55;;;;;;;;;;5026239;28;20045;-54
2023/10/03 00:23:04;;;;;;;39.10;17.35;;;;;;;;;;5018611;28;20029;-55
2023/10/03 00:25:30;;;;;;;38.97;18.27;;;;;;;;;;5029241;28;20041;-55
2023/10/03 00:27:59;;;;;;;45.13;19.33;;;;;;;;;;5034527;28;20033;-54
2023/10/03 00:30:26;;;;;;;36.45;17.38;;;;;;;;;;5031700;28;20095;-53
2023/10/03 00:32:52;;;;;;;39.40;17.48;;;;;;;;;;5022506;28;20128;-54
2023/10/03 00:35:22;;;;;;;41.25;18.65;;;;;;;;;;5020826;28;20030;-55
2023/10/03 00:37:50;;;;;;;42.67;18.42;;;;;;;;;;5007081;28;20081;-57
2023/10/03 00:40:27;;;;;;;39.60;17.50;;;;;;;;;;5002555;28;20125;-55
2023/10/03 00:42:54;;;;;;;9.73;5.38;;;;;;;;;;5010619;28;20037;-55
2023/10/03 00:45:25;;;;;;;0.00;0.00;;;;;;;;;;5003601;28;20044;-54
2023/10/03 00:47:54;;;;;;;0.00;0.00;;;;;;;;;;5006788;28;20042;-55
2023/10/03 00:50:20;;;;;;;0.00;0.00;;;;;;;;;;5020467;28;20821;-55
2023/10/03 00:52:53;;;;;;;0.00;0.00;;;;;;;;;;5028074;28;20042;-54
2023/10/03 00:55:19;;;;;;;0.00;0.00;;;;;;;;;;5002620;28;20026;-54
2023/10/03 00:57:45;;;;;;;0.00;0.00;;;;;;;;;;5005201;28;20564;-55
2023/10/03 01:00:15;;;;;;;0.00;0.00;;;;;;;;;;5003859;28;20038;-54
2023/10/03 01:02:49;;;;;;;0.00;0.00;;;;;;;;;;5024997;28;20076;-54
2023/10/03 01:05:16;;;;;;;0.00;0.00;;;;;;;;;;5027629;28;20053;-54
2023/10/03 01:07:44;;;;;;;0.00;0.00;;;;;;;;;;5027238;28;20033;-55
2023/10/03 01:10:12;;;;;;;0.00;0.00;;;;;;;;;;5024031;28;20524;-55
2023/10/03 01:12:38;;;;;;;0.00;0.00;;;;;;;;;;5016687;28;20120;-54
2023/10/03 01:15:12;;;;;;;0.00;0.00;;;;;;;;;;5025839;28;20632;-53
2023/10/03 01:17:38;;;;;;;0.00;0.00;;;;;;;;;;5020938;28;20038;-53
2023/10/03 01:20:16;;;;;;;0.00;0.00;;;;;;;;;;5020728;28;20040;-55
2023/10/03 01:22:44;;;;;;;0.00;0.00;;;;;;;;;;5024589;28;20041;-54
2023/10/03 01:25:12;;;;;;;0.00;0.00;;;;;;;;;;5021105;28;20037;-55
2023/10/03 01:27:39;;;;;;;0.00;0.00;;;;;;;;;;5019501;28;20050;-54
2023/10/03 01:30:06;;;;;;;0.00;0.00;;;;;;;;;;5002609;28;20042;-53
2023/10/03 01:32:33;;;;;;;0.00;0.00;;;;;;;;;;5017003;28;20034;-55
2023/10/03 01:35:05;;;;;;;0.00;0.00;;;;;;;;;;5022576;28;20033;-54
2023/10/03 01:37:31;;;;;;;0.00;0.00;;;;;;;;;;5012926;28;20041;-55
2023/10/03 01:39:57;;;;;;;0.00;0.00;;;;;;;;;;5027734;28;20119;-55
2023/10/03 01:42:23;;;;;;;0.00;0.00;;;;;;;;;;5022444;28;20029;-55
2023/10/03 01:44:50;;;;;;;0.00;0.00;;;;;;;;;;5024543;28;20167;-55
2023/10/03 01:47:16;;;;;;;0.00;0.00;;;;;;;;;;5020256;28;20164;-54
2023/10/03 01:49:42;;;;;;;0.00;0.00;;;;;;;;;;5023724;28;20036;-54
2023/10/03 01:52:08;;;;;;;0.00;0.00;;;;;;;;;;5021083;28;20128;-53
2023/10/03 01:54:34;;;;;;;0.00;0.00;;;;;;;;;;5018376;28;20175;-55
2023/10/03 01:57:01;;;;;;;0.00;0.00;;;;;;;;;;5017791;28;20026;-52
2023/10/03 01:59:27;;;;;;;0.00;0.00;;;;;;;;;;5018181;28;20042;-53
2023/10/03 02:01:53;;;;;;;0.00;0.00;;;;;;;;;;5018600;28;20517;-55
2023/10/03 02:04:19;;;;;;;0.00;0.00;;;;;;;;;;5013900;28;20029;-53
2023/10/03 02:06:45;;;;;;;17.83;8.55;;;;;;;;;;5023445;28;20567;-54
2023/10/03 02:09:12;;;;;;;40.00;18.80;;;;;;;;;;5011517;28;20045;-52
2023/10/03 02:11:38;;;;;;;36.63;17.98;;;;;;;;;;5018190;28;20121;-53
2023/10/03 02:14:07;;;;;;;43.22;18.27;;;;;;;;;;5021637;28;20556;-54
2023/10/03 02:16:40;;;;;;;39.85;17.10;;;;;;;;;;5022706;28;20045;-55
2023/10/03 02:19:06;;;;;;;39.80;16.77;;;;;;;;;;5018727;28;20078;-52
2023/10/03 02:21:32;;;;;;;38.33;17.83;;;;;;;;;;5022540;28;20033;-53
2023/10/03 02:23:58;;;;;;;38.97;17.25;;;;;;;;;;5024264;28;20098;-56
2023/10/03 02:26:28;;;;;;;41.13;17.10;;;;;;;;;;5023622;28;20397;-53
2023/10/03 02:28:54;;;;;;;37.00;17.60;;;;;;;;;;5026399;28;20036;-53
2023/10/03 02:31:20;;;;;;;40.05;17.98;;;;;;;;;;5019861;28;20313;-54
2023/10/03 02:33:47;;;;;;;37.10;16.08;;;;;;;;;;5009147;28;20176;-54
2023/10/03 02:36:15;;;;;;;38.38;17.83;;;;;;;;;;5020617;28;20359;-55
2023/10/03 02:38:41;;;;;;;36.90;17.10;;;;;;;;;;5024986;28;20519;-55
2023/10/03 02:41:07;;;;;;;38.20;16.90;;;;;;;;;;5019784;28;20034;-54
2023/10/03 02:43:35;;;;;;;34.53;16.38;;;;;;;;;;5018469;28;20037;-55
2023/10/03 02:46:03;;;;;;;40.28;17.17;;;;;;;;;;5007155;28;20042;-54
2023/10/03 02:48:29;;;;;;;35.90;16.13;;;;;;;;;;5013832;28;20536;-53
2023/10/03 02:50:55;;;;;;;39.22;17.90;;;;;;;;;;5026043;28;20041;-54
2023/10/03 02:53:21;;;;;;;38.58;16.98;;;;;;;;;;5023927;28;20519;-54
2023/10/03 02:55:48;;;;;;;38.53;16.38;;;;;;;;;;5026115;28;20030;-55
2023/10/03 02:58:15;;;;;;;42.33;17.67;;;;;;;;;;5025351;28;20045;-55
2023/10/03 03:00:41;;;;;;;37.22;16.60;;;;;;;;;;5026813;28;20082;-54
2023/10/03 03:03:11;;;;;;;39.80;17.65;;;;;;;;;;5016055;28;20379;-54
2023/10/03 03:05:38;;;;;;;40.65;16.77;;;;;;;;;;5005648;28;20401;-54
2023/10/03 03:08:21;;;;;;;37.85;16.55;;;;;;;;;;5005386;28;20041;-55
2023/10/03 03:10:55;;;;;;;38.13;16.83;;;;;;;;;;5004225;28;20141;-54
2023/10/03 03:13:22;;;;;;;37.78;17.00;;;;;;;;;;5003799;28;20385;-53
2023/10/03 03:15:59;;;;;;;36.53;15.65;;;;;;;;;;5006551;28;20038;-54
2023/10/03 03:18:26;;;;;;;34.72;15.77;;;;;;;;;;4998473;28;20046;-54
2023/10/03 03:20:57;;;;;;;39.15;16.27;;;;;;;;;;5003153;28;20516;-54
2023/10/03 03:23:27;;;;;;;42.78;17.40;;;;;;;;;;5013558;28;20041;-55
2023/10/03 03:26:02;;;;;;;37.63;16.13;;;;;;;;;;5024081;28;20120;-54
2023/10/03 03:28:28;;;;;;;32.45;14.90;;;;;;;;;;5015122;28;20037;-55
2023/10/03 03:30:58;;;;;;;36.80;16.52;;;;;;;;;;5001398;28;20042;-53
2023/10/03 03:33:27;;;;;;;37.38;16.33;;;;;;;;;;4998410;28;20045;-55
2023/10/03 03:35:54;;;;;;;35.05;15.60;;;;;;;;;;5018821;28;20453;-54
2023/10/03 03:38:20;;;;;;;35.78;16.00;;;;;;;;;;5022745;28;20037;-54
2023/10/03 03:40:47;;;;;;;35.15;15.30;;;;;;;;;;5025035;28;20048;-54
2023/10/03 03:43:16;;;;;;;35.40;15.55;;;;;;;;;;5022784;28;20040;-55
2023/10/03 03:45:46;;;;;;;33.88;15.75;;;;;;;;;;5022843;28;20477;-54
2023/10/03 03:48:13;;;;;;;35.63;15.77;;;;;;;;;;5021937;28;20045;-55
2023/10/03 03:50:40;;;;;;;32.85;15.18;;;;;;;;;;5025367;28;20451;-55
2023/10/03 03:53:10;;;;;;;30.33;14.82;;;;;;;;;;5024698;28;20560;-56
2023/10/03 03:55:37;;;;;;;33.78;15.23;;;;;;;;;;5026450;28;20036;-54
2023/10/03 03:58:06;;;;;;;35.55;16.23;;;;;;;;;;5024409;28;20748;-55
2023/10/03 04:00:32;;;;;;;36.25;15.77;;;;;;;;;;5020468;28;20370;-54
2023/10/03 04:03:00;;;;;;;34.13;15.32;;;;;;;;;;5006212;28;20042;-55
2023/10/03 04:05:29;;;;;;;35.08;15.55;;;;;;;;;;5011544;28;20094;-54
2023/10/03 04:07:55;;;;;;;31.83;15.05;;;;;;;;;;5018032;28;20040;-55
2023/10/03 04:10:22;;;;;;;33.67;15.02;;;;;;;;;;5022411;28;20049;-54
2023/10/03 04:12:49;;;;;;;33.42;15.15;;;;;;;;;;5026200;28;20612;-55
2023/10/03 04:15:16;;;;;;;33.97;15.48;;;;;;;;;;5023602;28;20508;-54
2023/10/03 04:17:42;;;;;;;34.83;15.40;;;;;;;;;;5019373;28;20414;-54
2023/10/03 04:20:51;;;;;;;30.15;14.75;;;;;;;;;;5014194;28;20034;-55
2023/10/03 04:22:58;;;;;;;33.20;15.65;;;;;;;;;;5003631;28;20048;-54
2023/10/03 04:25:25;;;;;;;32.65;14.93;;;;;;;;;;5023004;28;20551;-54
2023/10/03 04:27:51;;;;;;;30.45;14.10;;;;;;;;;;5028173;28;20045;-54
2023/10/03 04:30:20;;;;;;;33.80;14.80;;;;;;;;;;5021355;28;20029;-56
2023/10/03 04:32:50;;;;;;;34.25;13.93;;;;;;;;;;5020149;28;20037;-54
2023/10/03 04:35:18;;;;;;;29.65;13.90;;;;;;;;;;5013019;28;20042;-54
2023/10/03 04:37:57;;;;;;;27.13;12.98;;;;;;;;;;5018865;28;20132;-55
2023/10/03 04:40:37;;;;;;;26.65;12.60;;;;;;;;;;4998322;28;20494;-53
2023/10/03 04:43:15;;;;;;;29.40;13.38;;;;;;;;;;5003897;28;20120;-53
2023/10/03 04:45:43;;;;;;;29.60;13.02;;;;;;;;;;5004433;28;20474;-55
2023/10/03 04:48:10;;;;;;;30.40;13.40;;;;;;;;;;5009594;28;20573;-54
2023/10/03 04:50:37;;;;;;;28.08;13.25;;;;;;;;;;5004534;28;20030;-54
2023/10/03 04:53:05;;;;;;;26.67;12.43;;;;;;;;;;4996412;28;20044;-55
2023/10/03 04:55:32;;;;;;;27.10;12.18;;;;;;;;;;5001015;28;20042;-54
2023/10/03 04:57:58;;;;;;;25.70;11.98;;;;;;;;;;5014813;28;20045;-55
2023/10/03 05:00:24;;;;;;;25.33;11.65;;;;;;;;;;5006586;28;20438;-55
2023/10/03 05:02:54;;;;;;;28.23;12.80;;;;;;;;;;5019259;28;20041;-54
2023/10/03 05:05:22;;;;;;;45.22;22.30;;;;;;;;;;5022665;28;20032;-54
2023/10/03 05:07:58;;;;;;;28.63;13.10;;;;;;;;;;5021035;28;20493;-55
2023/10/03 05:10:25;;;;;;;31.92;12.52;;;;;;;;;;5007083;28;20025;-53
2023/10/03 05:12:52;;;;;;;28.65;12.50;;;;;;;;;;5011040;28;20041;-55
2023/10/03 05:15:18;;;;;;;27.98;12.00;;;;;;;;;;5016339;28;20477;-54
2023/10/03 05:17:45;;;;;;;28.90;11.60;;;;;;;;;;5018869;28;20515;-54
2023/10/03 05:20:13;;;;;;;27.38;12.25;;;;;;;;;;5011325;28;20038;-54
2023/10/03 05:22:40;;;;;;;28.75;12.32;;;;;;;;;;5008667;28;20128;-54
2023/10/03 05:25:10;;;;;;;29.55;12.38;;;;;;;;;;5020828;28;20033;-53
2023/10/03 05:27:37;;;;;;;25.10;11.80;;;;;;;;;;5023814;28;20092;-53
2023/10/03 05:30:05;;;;;;;26.05;12.15;;;;;;;;;;5021830;28;20102;-52
2023/10/03 05:32:31;;;;;;;28.02;12.40;;;;;;;;;;5021630;28;20033;-54
2023/10/03 05:34:58;;;;;;;24.40;12.18;;;;;;;;;;5023513;28;20052;-54
2023/10/03 05:37:27;;;;;;;24.85;11.23;;;;;;;;;;5010613;28;20043;-54
2023/10/03 05:39:53;;;;;;;25.13;11.40;;;;;;;;;;5002408;28;20041;-54
2023/10/03 05:42:20;;;;;;;27.15;11.57;;;;;;;;;;5004166;28;20022;-55
2023/10/03 05:44:46;;;;;;;24.80;11.80;;;;;;;;;;5003922;28;20042;-54
2023/10/03 05:47:12;;;;;;;22.90;10.48;;;;;;;;;;5002176;28;20575;-53
2023/10/03 05:49:38;;;;;;;25.45;12.02;;;;;;;;;;5004117;28;20437;-54
2023/10/03 05:52:04;;;;;;;22.30;10.50;;;;;;;;;;5010676;28;20378;-54
2023/10/03 05:54:30;;;;;;;27.35;10.98;;;;;;;;;;5021869;28;20052;-55
2023/10/03 05:56:57;;;;;;;30.30;11.68;;;;;;;;;;5023610;28;20037;-54
2023/10/03 05:59:23;;;;;;;22.42;10.35;;;;;;;;;;5037412;28;20037;-53
2023/10/03 06:01:50;;;;;;;24.58;10.77;;;;;;;;;;5018798;28;20510;-55
2023/10/03 06:04:16;;;;;;;22.38;10.68;;;;;;;;;;5026289;28;20120;-53
2023/10/03 06:06:46;;;;;;;27.08;11.38;;;;;;;;;;5021156;28;20409;-54
2023/10/03 06:09:12;;;;;;;24.42;10.65;;;;;;;;;;5004832;28;20414;-54
2023/10/03 06:11:38;;;;;;;22.67;10.68;;;;;;;;;;5007167;28;20041;-53
2023/10/03 06:14:04;;;;;;;23.17;11.07;;;;;;;;;;5015774;28;20219;-55
2023/10/03 06:16:30;;;;;;;28.98;10.95;;;;;;;;;;5022729;28;20440;-55
2023/10/03 06:18:57;;;;;;;22.27;11.55;;;;;;;;;;5024657;28;20041;-55
2023/10/03 06:21:25;;;;;;;22.13;10.70;;;;;;;;;;5022692;28;20964;-53
2023/10/03 06:23:51;;;;;;;24.02;9.90;;;;;;;;;;5026086;28;20029;-54
2023/10/03 06:26:18;;;;;;;13.00;6.20;;;;;;;;;;5024406;28;20040;-54
2023/10/03 06:28:45;;;;;;;27.67;10.93;;;;;;;;;;5025289;28;20850;-54
2023/10/03 06:31:11;;;;;;;19.90;9.38;;;;;;;;;;5024409;28;20044;-55
2023/10/03 06:33:37;;;;;;;19.48;8.95;;;;;;;;;;5020030;28;20034;-54
2023/10/03 06:36:06;;;;;;;18.92;9.52;;;;;;;;;;5004147;28;20128;-54
2023/10/03 06:38:36;;;;;;;20.73;9.85;;;;;;;;;;5006074;28;20034;-53
2023/10/03 06:41:04;;;;;;;20.58;9.40;;;;;;;;;;5005140;28;20395;-55
2023/10/03 06:43:30;;;;;;;19.15;9.02;;;;;;;;;;5004848;28;20445;-54
2023/10/03 06:45:55;;;;;;;19.13;8.65;;;;;;;;;;5006058;28;20049;-55
2023/10/03 06:48:23;;;;;;;17.08;7.50;;;;;;;;;;5004971;28;20049;-54
2023/10/03 06:50:49;;;;;;;14.65;7.25;;;;;;;;;;5006212;28;20034;-54
2023/10/03 06:53:18;;;;;;;18.38;7.78;;;;;;;;;;5006823;28;20623;-55
2023/10/03 06:55:44;;;;;;;21.80;7.97;;;;;;;;;;5005963;28;20088;-54
2023/10/03 06:58:12;;;;;;;18.00;7.95;;;;;;;;;;5004689;28;20464;-54
2023/10/03 07:00:39;;;;;;;14.85;7.22;;;;;;;;;;5006444;28;20050;-53
2023/10/03 07:03:05;;;;;;;12.60;7.07;;;;;;;;;;5005742;28;20045;-54
2023/10/03 07:05:35;;;;;;;16.45;7.05;;;;;;;;;;5025287;28;20115;-55
2023/10/03 07:08:03;;;;;;;10.07;6.13;;;;;;;;;;5015026;28;20640;-51
2023/10/03 07:10:29;;;;;;;13.27;6.45;;;;;;;;;;5002646;28;20045;-54
2023/10/03 07:12:57;;;;;;;13.93;5.80;;;;;;;;;;5004446;28;20096;-55
2023/10/03 07:15:23;;;;;;;3.83;2.60;;;;;;;;;;5002362;28;20034;-53
2023/10/03 07:17:50;;;;;;;0.00;0.00;;;;;;;;;;5001973;28;20103;-55
2023/10/03 07:20:17;;;;;;;12.32;6.18;;;;;;;;;;5002440;28;20714;-55
2023/10/03 07:22:42;;;;;;;12.18;5.38;;;;;;;;;;5000163;28;20456;-54
2023/10/03 07:25:09;;;;;;;12.77;6.22;;;;;;;;;;5002765;28;20116;-54
2023/10/03 07:27:36;;;;;;;0.00;0.00;;;;;;;;;;5000980;28;20049;-54
2023/10/03 07:30:02;;;;;;;0.00;0.00;;;;;;;;;;5003594;28;20462;-51
2023/10/03 07:32:30;;;;;;;6.65;2.65;;;;;;;;;;5006838;28;20054;-55
2023/10/03 07:34:57;;;;;;;16.75;6.93;;;;;;;;;;5006568;28;20046;-55
2023/10/03 07:37:23;;;;;;;12.05;6.25;;;;;;;;;;4999917;28;20286;-54
2023/10/03 07:39:50;;;;;;;12.85;6.30;;;;;;;;;;5004173;28;20058;-53
2023/10/03 07:42:17;;;;;;;12.73;5.90;;;;;;;;;;5002876;28;20037;-55
2023/10/03 07:44:44;;;;;;;12.98;5.82;;;;;;;;;;5004102;28;20086;-55
2023/10/03 07:47:11;;;;;;;15.25;6.43;;;;;;;;;;5001695;28;20117;-54
2023/10/03 07:49:37;;;;;;;11.55;6.38;;;;;;;;;;5002383;28;20041;-54
2023/10/03 07:52:04;;;;;;;0.00;0.00;;;;;;;;;;4998246;28;20375;-54
2023/10/03 07:54:36;;;;;;;6.75;3.17;;;;;;;;;;4999033;28;20026;-55
2023/10/03 07:57:06;;;;;;;11.00;6.13;;;;;;;;;;4998608;28;20128;-54
2023/10/03 07:59:32;;;;;;;20.27;7.32;;;;;;;;;;5000200;28;20398;-55
2023/10/03 08:02:05;;;;;;;10.82;6.53;;;;;;;;;;5003546;28;20049;-54
2023/10/03 08:04:31;;;;;;;11.52;6.80;;;;;;;;;;5006708;28;20041;-55
2023/10/03 08:06:57;;;;;;;13.65;6.68;;;;;;;;;;5005483;28;20931;-55
2023/10/03 08:09:24;;;;;;;15.70;6.53;;;;;;;;;;5000296;28;20083;-55
2023/10/03 08:11:52;;;;;;;15.73;7.10;;;;;;;;;;5001472;28;20038;-53
2023/10/03 08:14:18;;;;;;;14.35;6.38;;;;;;;;;;4996438;28;20410;-55
2023/10/03 08:16:47;;;;;;;0.00;0.00;;;;;;;;;;5018478;28;20041;-53
2023/10/03 08:19:27;;;;;;;0.00;0.00;;;;;;;;;;4995783;28;20054;-53
2023/10/03 08:21:53;;;;;;;0.00;0.00;;;;;;;;;;5014264;28;20469;-53
2023/10/03 08:24:24;;;;;;;0.00;0.00;;;;;;;;;;5023814;28;20084;-53
2023/10/03 08:26:51;;;;;;;0.00;0.00;;;;;;;;;;5027519;28;20037;-56
2023/10/03 08:29:23;;;;;;;0.00;0.00;;;;;;;;;;5004189;28;20034;-53
2023/10/03 08:31:49;;;;;;;0.00;0.00;;;;;;;;;;5004499;28;20045;-53
2023/10/03 08:34:19;;;;;;;13.32;6.28;;;;;;;;;;5022968;28;20042;-55
2023/10/03 08:36:46;;;;;;;16.83;7.97;;;;;;;;;;5021185;28;20038;-57
2023/10/03 08:39:12;;;;;;;16.27;8.05;;;;;;;;;;5004083;28;20053;-53
2023/10/03 08:41:48;;;;;;;15.90;8.13;;;;;;;;;;5024227;28;20044;-53
2023/10/03 08:44:23;;;;;;;15.50;7.30;;;;;;;;;;5057010;27;20847;-53
2023/10/03 08:46:55;;;;;;;15.73;7.43;;;;;;;;;;5031521;28;20052;-54
2023/10/03 08:49:25;;;;;;;14.05;7.85;;;;;;;;;;5036528;28;20092;-55
2023/10/03 08:51:52;;;;;;;15.60;8.10;;;;;;;;;;5038027;28;20036;-54
2023/10/03 08:54:18;;;;;;;14.35;7.57;;;;;;;;;;5014076;28;20046;-53
2023/10/03 08:56:44;;;;;;;13.60;7.85;;;;;;;;;;5020997;28;20148;-52
2023/10/03 08:59:10;;;;;;;13.93;7.35;;;;;;;;;;5017624;28;20517;-53
2023/10/03 09:01:45;;;;;;;13.57;7.50;;;;;;;;;;5020077;28;20507;-54
2023/10/03 09:04:15;;;;;;;5.68;3.50;;;;;;;;;;5019032;28;20217;-53
2023/10/03 09:06:42;;;;;;;9.30;3.75;;;;;;;;;;5018111;28;20128;-54
2023/10/03 09:09:08;;;;;;;15.80;8.15;;;;;;;;;;5019351;28;20034;-53
2023/10/03 09:11:37;;;;;;;14.55;7.68;;;;;;;;;;5016906;28;20460;-53
2023/10/03 09:14:03;;;;;;;12.75;7.70;;;;;;;;;;5018862;28;20038;-54
2023/10/03 09:16:29;;;;;;;11.98;7.25;;;;;;;;;;5016287;28;20721;-53
2023/10/03 09:19:00;;;;;;;19.20;8.27;;;;;;;;;;5002400;28;20038;-55
2023/10/03 09:21:29;;;;;;;15.63;8.20;;;;;;;;;;4997388;28;20106;-51
2023/10/03 09:24:01;;;;;;;13.52;7.75;;;;;;;;;;4996778;28;20042;-54
2023/10/03 09:26:46;;;;;;;17.02;8.15;;;;;;;;;;5015651;28;20049;-55
2023/10/03 09:29:18;;;;;;;15.65;7.43;;;;;;;;;;5013497;28;20038;-54
2023/10/03 09:31:48;;;;;;;16.60;7.82;;;;;;;;;;5019651;28;20135;-54
2023/10/03 09:34:14;;;;;;;13.43;7.15;;;;;;;;;;5006825;28;20038;-53
2023/10/03 09:36:41;;;;;;;14.25;6.93;;;;;;;;;;4999987;28;20030;-55
2023/10/03 09:39:20;;;;;;;12.65;7.15;;;;;;;;;;4997076;28;20576;-55
2023/10/03 09:41:49;;;;;;;11.75;7.07;;;;;;;;;;4998221;28;20033;-55
2023/10/03 09:44:17;;;;;;;12.90;7.45;;;;;;;;;;5002463;28;20046;-51
2023/10/03 09:46:43;;;;;;;17.20;8.18;;;;;;;;;;5003609;28;20045;-50
2023/10/03 09:49:09;;;;;;;20.17;9.40;;;;;;;;;;5005758;28;20031;-52
2023/10/03 09:51:51;;;;;;;12.57;8.98;;;;;;;;;;5000997;28;20148;-49
2023/10/03 09:54:24;;;;;;;0.00;0.00;;;;;;;;;;4992385;28;20042;-51
2023/10/03 09:56:51;;;;;;;0.00;0.00;;;;;;;;;;4985511;28;20038;-49
2023/10/03 09:59:23;;;;;;;0.00;0.00;;;;;;;;;;4982990;28;20572;-52
2023/10/03 10:01:54;;;;;;;0.00;0.00;;;;;;;;;;4985697;28;20304;-51
2023/10/03 10:04:21;;;;;;;0.00;0.00;;;;;;;;;;4982381;28;20116;-52
2023/10/03 10:06:52;;;;;;;13.60;10.98;;;;;;;;;;4985167;28;20042;-53
2023/10/03 10:09:27;;;;;;;24.30;18.80;;;;;;;;;;4980252;28;20038;-52
2023/10/03 10:12:09;;;;;;;28.63;19.17;;;;;;;;;;4980362;28;20050;-53
2023/10/03 10:14:54;;;;;;;29.65;18.67;;;;;;;;;;4988620;28;20030;-51
2023/10/03 10:17:21;;;;;;;22.60;18.30;;;;;;;;;;4982362;28;20517;-53
2023/10/03 10:20:06;;;;;;;26.25;17.88;;;;;;;;;;4990108;28;20034;-53
2023/10/03 10:22:51;;;;;;;30.27;19.08;;;;;;;;;;4992176;28;21595;-49
2023/10/03 10:25:25;;;;;;;24.50;17.88;;;;;;;;;;4981241;28;20478;-50
2023/10/03 10:28:01;;;;;;;30.40;17.90;;;;;;;;;;4984114;28;20121;-51
2023/10/03 10:30:27;;;;;;;27.05;16.83;;;;;;;;;;4991704;28;20038;-51
2023/10/03 10:33:12;;;;;;;22.17;16.45;;;;;;;;;;4985989;28;20365;-52
2023/10/03 10:35:50;;;;;;;23.70;15.35;;;;;;;;;;4985039;28;20039;-52
2023/10/03 10:38:16;;;;;;;21.05;14.57;;;;;;;;;;4981399;28;20038;-51
2023/10/03 10:41:04;;;;;;;21.55;13.07;;;;;;;;;;4984782;28;20092;-53
2023/10/03 10:43:33;;;;;;;20.48;12.98;;;;;;;;;;4984448;28;20149;-54
2023/10/03 10:46:17;;;;;;;22.15;11.30;;;;;;;;;;4983871;28;20102;-55
2023/10/03 10:48:46;;;;;;;16.55;9.18;;;;;;;;;;5002810;28;20056;-54
2023/10/03 10:51:12;;;;;;;5.20;2.85;;;;;;;;;;5000335;28;20569;-53
2023/10/03 10:53:38;;;;;;;5.05;2.08;;;;;;;;;;4984379;28;20069;-53
2023/10/03 10:56:08;;;;;;;4.55;1.40;;;;;;;;;;4993114;28;20046;-53
2023/10/03 10:58:44;;;;;;;4.03;1.60;;;;;;;;;;4986274;28;20104;-54
2023/10/03 11:01:12;;;;;;;4.70;1.67;;;;;;;;;;4981717;28;20050;-53
2023/10/03 11:03:38;;;;;;;4.35;1.33;;;;;;;;;;4980107;28;20038;-53
2023/10/03 11:06:13;;;;;;;5.25;1.30;;;;;;;;;;4979189;28;20038;-56
2023/10/03 11:08:49;;;;;;;15.75;9.63;;;;;;;;;;4981527;28;20045;-60
2023/10/03 11:11:16;;;;;;;5.95;1.27;;;;;;;;;;4980749;28;20446;-57
2023/10/03 11:13:49;;;;;;;4.65;1.30;;;;;;;;;;4980844;28;20089;-57
2023/10/03 11:16:22;;;;;;;3.70;1.48;;;;;;;;;;4995577;28;20034;-56
2023/10/03 11:18:49;;;;;;;7.82;1.17;;;;;;;;;;4979912;28;20038;-58
2023/10/03 11:21:16;;;;;;;4.05;1.38;;;;;;;;;;4983522;28;20041;-59
2023/10/03 11:24:03;;;;;;;6.28;1.40;;;;;;;;;;4982859;28;20050;-59
2023/10/03 11:26:40;;;;;;;5.35;1.40;;;;;;;;;;4985589;28;20041;-55
2023/10/03 11:29:06;;;;;;;5.00;1.70;;;;;;;;;;4983959;28;20636;-56
2023/10/03 11:31:37;;;;;;;7.68;1.40;;;;;;;;;;4989798;28;20026;-57
2023/10/03 11:34:03;;;;;;;4.07;1.40;;;;;;;;;;4979955;28;20038;-58
2023/10/03 11:36:39;;;;;;;7.90;2.17;;;;;;;;;;4981075;28;20162;-60
2023/10/03 11:39:06;;;;;;;8.10;2.10;;;;;;;;;;4977704;28;20073;-58
2023/10/03 11:41:37;;;;;;;8.30;1.90;;;;;;;;;;4980301;28;20251;-55
2023/10/03 11:44:04;;;;;;;7.13;2.25;;;;;;;;;;4980171;28;20038;-55
2023/10/03 11:46:37;;;;;;;6.50;2.05;;;;;;;;;;4986964;28;20030;-57
2023/10/03 11:49:03;;;;;;;6.53;2.20;;;;;;;;;;4986527;28;20027;-58
2023/10/03 11:51:29;;;;;;;10.00;2.47;;;;;;;;;;4981499;28;20077;-59
2023/10/03 11:53:55;;;;;;;6.32;2.55;;;;;;;;;;4980657;28;20062;-55
2023/10/03 11:56:21;;;;;;;8.52;2.13;;;;;;;;;;4980404;28;20496;-53
2023/10/03 11:58:47;;;;;;;10.80;2.78;;;;;;;;;;4982530;28;20046;-54
2023/10/03 12:01:13;;;;;;;5.55;2.70;;;;;;;;;;4996395;28;20046;-52
2023/10/03 12:03:39;;;;;;;6.63;2.45;;;;;;;;;;4980700;28;20046;-52
2023/10/03 12:06:05;;;;;;;7.43;2.63;;;;;;;;;;4981113;28;20026;-52
2023/10/03 12:08:40;;;;;;;9.20;2.70;;;;;;;;;;4983078;28;20511;-54
2023/10/03 12:11:07;;;;;;;6.75;1.95;;;;;;;;;;4981693;28;20069;-51
2023/10/03 12:13:33;;;;;;;7.25;1.77;;;;;;;;;;4982366;28;20046;-52
2023/10/03 12:15:59;;;;;;;4.53;2.00;;;;;;;;;;4980836;28;20088;-56
2023/10/03 12:18:26;;;;;;;2.97;1.75;;;;;;;;;;4979729;28;20038;-53
2023/10/03 12:20:52;;;;;;;3.58;1.83;;;;;;;;;;4982175;28;20116;-50
2023/10/03 12:23:18;;;;;;;6.63;2.10;;;;;;;;;;4981613;28;20144;-49
2023/10/03 12:25:45;;;;;;;8.50;2.28;;;;;;;;;;4983542;28;20088;-52
2023/10/03 12:28:11;;;;;;;6.80;2.28;;;;;;;;;;4980774;28;20050;-54
2023/10/03 12:30:37;;;;;;;2.97;2.40;;;;;;;;;;4986460;28;20109;-48
2023/10/03 12:33:03;;;;;;;6.53;2.55;;;;;;;;;;4983440;28;20114;-51
2023/10/03 12:35:29;;;;;;;3.45;1.13;;;;;;;;;;4981461;28;20038;-53
2023/10/03 12:37:58;;;;;;;4.50;1.30;;;;;;;;;;4981772;28;20121;-53
2023/10/03 12:40:27;;;;;;;4.00;1.30;;;;;;;;;;4990363;28;20379;-53
2023/10/03 12:42:53;;;;;;;2.97;1.33;;;;;;;;;;4983765;28;20085;-54
2023/10/03 12:45:22;;;;;;;2.75;1.00;;;;;;;;;;4980708;28;20042;-52
2023/10/03 12:47:49;;;;;;;4.70;0.90;;;;;;;;;;4986031;28;20050;-52
2023/10/03 12:50:23;;;;;;;2.42;1.20;;;;;;;;;;4980899;28;20050;-50
2023/10/03 12:52:49;;;;;;;3.05;1.10;;;;;;;;;;4985462;28;20038;-53
2023/10/03 12:55:16;;;;;;;2.25;1.00;;;;;;;;;;4979822;28;20096;-52
2023/10/03 12:57:42;;;;;;;2.38;1.10;;;;;;;;;;4980568;28;20073;-55
2023/10/03 13:00:09;;;;;;;3.50;1.17;;;;;;;;;;4979548;28;20479;-52
2023/10/03 13:02:35;;;;;;;2.50;1.30;;;;;;;;;;4979593;28;20096;-53
2023/10/03 13:05:05;;;;;;;3.00;1.30;;;;;;;;;;4980288;28;20030;-50
2023/10/03 13:07:35;;;;;;;2.95;1.50;;;;;;;;;;4988503;28;20043;-50
2023/10/03 13:10:03;;;;;;;3.03;1.65;;;;;;;;;;4975929;28;20045;-54
2023/10/03 13:12:29;;;;;;;4.10;1.80;;;;;;;;;;4982479;28;20100;-52
2023/10/03 13:14:55;;;;;;;5.85;1.73;;;;;;;;;;4983229;28;20468;-52
2023/10/03 13:17:22;;;;;;;3.08;1.80;;;;;;;;;;4977858;28;20041;-53
2023/10/03 13:19:48;;;;;;;6.53;1.83;;;;;;;;;;4983700;28;20671;-52
2023/10/03 13:22:15;;;;;;;5.97;2.25;;;;;;;;;;4980208;28;20042;-53
2023/10/03 13:24:42;;;;;;;8.40;2.30;;;;;;;;;;4992405;28;20040;-51
2023/10/03 13:27:08;;;;;;;5.57;2.20;;;;;;;;;;4978422;28;20041;-52
2023/10/03 13:29:34;;;;;;;6.70;2.13;;;;;;;;;;4972742;28;20032;-55
2023/10/03 13:32:02;;;;;;;5.13;2.00;;;;;;;;;;4977296;28;20111;-55
2023/10/03 13:34:28;;;;;;;6.65;2.10;;;;;;;;;;4988068;28;20426;-52
2023/10/03 13:36:54;;;;;;;6.18;2.40;;;;;;;;;;4974881;28;20457;-54
2023/10/03 13:39:26;;;;;;;6.95;2.03;;;;;;;;;;4975351;28;20615;-54
2023/10/03 13:41:53;;;;;;;7.60;2.42;;;;;;;;;;4976116;28;20049;-52
2023/10/03 13:44:19;;;;;;;3.90;1.80;;;;;;;;;;4975079;28;20803;-50
2023/10/03 13:46:46;;;;;;;5.57;1.60;;;;;;;;;;4978683;28;20053;-51
2023/10/03 13:49:15;;;;;;;5.78;1.65;;;;;;;;;;4970783;28;20043;-57
2023/10/03 13:51:41;;;;;;;5.10;1.55;;;;;;;;;;4972367;28;20054;-54
2023/10/03 13:54:07;;;;;;;5.32;1.88;;;;;;;;;;4975564;28;20042;-57
2023/10/03 13:57:11;;;;;;;3.65;1.52;;;;;;;;;;4968738;28;20039;-57
2023/10/03 13:59:28;;;;;;;4.68;1.40;;;;;;;;;;4986624;28;20757;-57
2023/10/03 14:01:55;;;;;;;5.45;1.80;;;;;;;;;;4986732;28;20042;-57
2023/10/03 14:04:21;;;;;;;4.68;1.40;;;;;;;;;;4980198;28;20117;-57
2023/10/03 14:06:47;;;;;;;4.57;1.52;;;;;;;;;;4974693;28;20049;-54
2023/10/03 14:09:16;;;;;;;5.10;1.40;;;;;;;;;;4973776;28;20491;-56
2023/10/03 14:11:42;;;;;;;3.85;1.13;;;;;;;;;;4975130;28;20063;-56
2023/10/03 14:14:10;;;;;;;4.15;1.27;;;;;;;;;;4973705;28;20038;-57
2023/10/03 14:16:37;;;;;;;1.98;0.93;;;;;;;;;;4975553;28;20081;-55
2023/10/03 14:19:03;;;;;;;3.22;1.13;;;;;;;;;;4974197;28;20482;-54
2023/10/03 14:21:29;;;;;;;1.70;0.70;;;;;;;;;;4975452;28;20053;-57
2023/10/03 14:23:55;;;;;;;3.38;1.25;;;;;;;;;;4975248;28;20125;-55
2023/10/03 14:26:23;;;;;;;3.40;0.73;;;;;;;;;;4975623;28;20422;-55
2023/10/03 14:28:49;;;;;;;2.00;0.80;;;;;;;;;;4980230;28;20026;-54
2023/10/03 14:31:15;;;;;;;2.35;0.90;;;;;;;;;;4987549;28;20449;-57
2023/10/03 14:33:41;;;;;;;2.30;0.80;;;;;;;;;;4979524;28;20030;-52
2023/10/03 14:36:11;;;;;;;1.67;0.80;;;;;;;;;;4979810;28;20409;-54
2023/10/03 14:38:38;;;;;;;2.25;0.98;;;;;;;;;;4975111;28;20042;-52